createdAt,value
2017-07-18T00:02:23.091Z,72.01
2017-07-18T00:04:49.106Z,71.97
2017-07-18T00:07:14.955Z,72.07
2017-07-18T00:09:40.908Z,72.26
2017-07-18T00:12:06.752Z,72.61
2017-07-18T00:14:32.607Z,72.99
2017-07-18T00:16:58.577Z,73.23
2017-07-18T00:19:24.444Z,73.00
2017-07-18T00:21:50.430Z,72.68
2017-07-18T00:24:16.253Z,73.02
2017-07-18T00:26:42.102Z,73.06
2017-07-18T00:29:08.093Z,73.12
2017-07-18T00:31:33.971Z,73.83
2017-07-18T00:33:59.928Z,74.12
2017-07-18T00:36:25.774Z,74.33
2017-07-18T00:38:51.604Z,73.79
2017-07-18T00:41:18.433Z,73.88
2017-07-18T00:43:44.363Z,74.06
2017-07-18T00:46:10.223Z,74.98
2017-07-18T00:48:36.089Z,74.40
2017-07-18T00:51:01.924Z,74.59
2017-07-18T00:53:27.864Z,75.11
2017-07-18T00:55:53.725Z,75.27
2017-07-18T00:58:19.609Z,76.06
2017-07-18T01:00:45.598Z,75.39
2017-07-18T01:03:11.455Z,75.31
2017-07-18T01:05:37.365Z,75.65
2017-07-18T01:08:03.270Z,75.56
2017-07-18T01:10:29.210Z,75.38
2017-07-18T01:12:55.072Z,75.91
2017-07-18T01:15:21.060Z,75.21
2017-07-18T01:17:46.936Z,75.73
2017-07-18T01:20:12.825Z,76.22
2017-07-18T01:22:38.709Z,76.18
2017-07-18T01:25:04.590Z,75.95
2017-07-18T01:27:30.464Z,76.52
2017-07-18T01:29:56.353Z,76.81
2017-07-18T01:32:22.225Z,76.51
2017-07-18T01:34:48.154Z,77.00
2017-07-18T01:37:14.060Z,77.21
2017-07-18T01:39:39.917Z,77.46
2017-07-18T01:42:05.801Z,76.95
2017-07-18T01:44:31.682Z,78.00
2017-07-18T01:46:57.534Z,78.18
2017-07-18T01:49:23.407Z,77.82
2017-07-18T01:51:49.531Z,78.15
2017-07-18T01:54:15.408Z,78.59
2017-07-18T01:56:41.267Z,78.56
2017-07-18T01:59:07.272Z,77.87
2017-07-18T02:01:33.253Z,78.34
2017-07-18T02:03:59.105Z,78.88
2017-07-18T02:06:24.990Z,78.29
2017-07-18T02:08:50.929Z,78.32
2017-07-18T02:11:16.811Z,78.85
2017-07-18T02:13:42.853Z,79.00
2017-07-18T02:16:08.805Z,78.80
2017-07-18T02:18:34.698Z,79.06
2017-07-18T02:21:00.620Z,78.78
2017-07-18T02:23:26.536Z,79.52
2017-07-18T02:25:52.445Z,79.67
2017-07-18T02:28:18.288Z,79.87
2017-07-18T02:30:44.220Z,79.75
2017-07-18T02:33:10.213Z,80.37
2017-07-18T02:35:36.128Z,79.86
2017-07-18T02:38:02.004Z,80.20
2017-07-18T02:40:27.908Z,79.46
2017-07-18T02:42:53.818Z,79.87
2017-07-18T02:45:19.709Z,79.63
2017-07-18T02:47:45.644Z,79.71
2017-07-18T02:50:11.500Z,79.76
2017-07-18T02:52:37.575Z,79.50
2017-07-18T02:55:03.540Z,80.37
2017-07-18T02:57:29.429Z,80.54
2017-07-18T02:59:55.349Z,80.04
2017-07-18T03:02:21.211Z,79.93
2017-07-18T03:04:47.085Z,79.89
2017-07-18T03:07:12.991Z,80.23
2017-07-18T03:09:38.865Z,80.44
2017-07-18T03:12:04.732Z,80.40
2017-07-18T03:14:30.789Z,80.69
2017-07-18T03:16:56.669Z,81.14
2017-07-18T03:19:22.592Z,81.33
2017-07-18T03:21:48.561Z,81.35
2017-07-18T03:24:26.517Z,81.57
2017-07-18T03:26:52.484Z,81.45
2017-07-18T03:29:18.345Z,80.79
2017-07-18T03:31:44.222Z,81.29
2017-07-18T03:34:10.099Z,82.42
2017-07-18T03:36:36.004Z,81.10
2017-07-18T03:39:01.945Z,80.08
2017-07-18T03:41:27.765Z,81.07
2017-07-18T03:43:53.601Z,81.06
2017-07-18T03:46:19.428Z,80.93
2017-07-18T03:48:45.230Z,80.73
2017-07-18T03:51:11.083Z,81.15
2017-07-18T03:53:36.894Z,81.12
2017-07-18T03:56:02.730Z,81.41
2017-07-18T03:58:28.554Z,81.13
2017-07-18T04:00:54.441Z,80.85
2017-07-18T04:03:20.317Z,80.83
2017-07-18T04:05:46.143Z,81.03
2017-07-18T04:08:11.976Z,81.12
2017-07-18T04:10:37.811Z,81.22
2017-07-18T04:13:03.736Z,80.78
2017-07-18T04:15:29.610Z,81.04
2017-07-18T04:17:55.437Z,81.26
2017-07-18T04:20:21.302Z,81.12
2017-07-18T04:22:47.091Z,80.79
2017-07-18T04:25:12.954Z,80.35
2017-07-18T04:27:38.814Z,81.24
2017-07-18T04:30:04.669Z,81.08
2017-07-18T04:32:30.571Z,81.23
2017-07-18T04:34:56.495Z,80.74
2017-07-18T04:37:22.401Z,81.00
2017-07-18T04:39:48.269Z,80.93
2017-07-18T04:42:14.098Z,79.69
2017-07-18T04:44:39.916Z,78.67
2017-07-18T04:47:05.742Z,80.29
2017-07-18T04:49:31.623Z,80.02
2017-07-18T04:51:57.421Z,80.54
2017-07-18T04:54:23.329Z,79.54
2017-07-18T04:56:49.233Z,79.12
2017-07-18T04:59:15.249Z,80.05
2017-07-18T05:01:41.053Z,80.12
2017-07-18T05:04:06.896Z,78.84
2017-07-18T05:06:32.906Z,78.72
2017-07-18T05:08:58.946Z,79.52
2017-07-18T05:11:24.983Z,80.56
2017-07-18T05:13:50.914Z,79.05
2017-07-18T05:16:16.707Z,78.58
2017-07-18T05:18:42.567Z,78.53
2017-07-18T05:21:08.368Z,77.07
2017-07-18T05:23:34.160Z,77.31
2017-07-18T05:26:00.633Z,77.78
2017-07-18T05:28:26.438Z,77.21
2017-07-18T05:30:52.255Z,76.14
2017-07-18T05:33:18.086Z,76.45
2017-07-18T05:35:44.003Z,76.46
2017-07-18T05:38:09.831Z,75.30
2017-07-18T05:40:35.629Z,74.91
2017-07-18T05:43:01.659Z,74.38
2017-07-18T05:45:27.502Z,74.07
2017-07-18T05:47:53.383Z,74.15
2017-07-18T05:50:19.213Z,73.06
2017-07-18T05:52:45.049Z,72.87
2017-07-18T05:55:10.905Z,72.87
2017-07-18T05:57:36.749Z,72.76
2017-07-18T06:00:02.670Z,72.17
2017-07-18T06:02:28.591Z,71.89
2017-07-18T06:04:54.434Z,71.32
2017-07-18T06:07:20.378Z,70.68
2017-07-18T06:09:46.208Z,70.38
2017-07-18T06:12:12.104Z,69.93
2017-07-18T06:14:38.038Z,69.77
2017-07-18T06:17:03.850Z,69.51
2017-07-18T06:19:29.698Z,68.94
2017-07-18T06:21:55.581Z,68.71
2017-07-18T06:24:21.490Z,68.45
2017-07-18T06:26:47.306Z,67.68
2017-07-18T06:29:13.345Z,67.66
2017-07-18T06:31:39.331Z,67.13
2017-07-18T06:34:05.160Z,66.51
2017-07-18T06:36:31.121Z,65.23
2017-07-18T06:38:57.031Z,66.16
2017-07-18T06:41:22.931Z,65.49
2017-07-18T06:43:48.766Z,64.98
2017-07-18T06:46:14.683Z,64.96
2017-07-18T06:48:40.712Z,64.02
2017-07-18T06:51:07.746Z,62.73
2017-07-18T06:53:33.803Z,62.18
2017-07-18T06:55:59.762Z,59.92
2017-07-18T06:58:25.598Z,60.23
2017-07-18T07:00:51.649Z,59.95
2017-07-18T07:03:17.639Z,59.80
2017-07-18T07:05:43.663Z,58.43
2017-07-18T07:08:10.316Z,57.57
2017-07-18T07:10:36.285Z,58.68
2017-07-18T07:13:02.137Z,57.24
2017-07-18T07:15:28.150Z,56.73
2017-07-18T07:17:54.218Z,57.18
2017-07-18T07:20:20.248Z,55.55
2017-07-18T07:22:46.147Z,55.20
2017-07-18T07:25:12.109Z,53.72
2017-07-18T07:27:38.955Z,53.46
2017-07-18T07:30:05.480Z,52.65
2017-07-18T07:32:33.094Z,52.95
2017-07-18T07:35:00.162Z,52.43
2017-07-18T07:37:27.134Z,54.33
2017-07-18T07:39:54.005Z,53.65
2017-07-18T07:42:20.615Z,53.19
2017-07-18T07:44:49.022Z,53.72
2017-07-18T07:47:15.673Z,53.56
2017-07-18T07:49:42.778Z,52.47
2017-07-18T07:52:09.444Z,51.77
2017-07-18T07:54:35.883Z,52.48
2017-07-18T07:57:02.394Z,51.10
2017-07-18T07:59:29.040Z,52.11
2017-07-18T08:01:55.667Z,51.33
2017-07-18T08:04:21.988Z,51.03
2017-07-18T08:06:48.525Z,49.95
2017-07-18T08:09:14.446Z,49.68
2017-07-18T08:11:41.167Z,48.57
2017-07-18T08:14:07.752Z,47.61
2017-07-18T08:16:34.413Z,48.36
2017-07-18T08:19:00.914Z,47.19
2017-07-18T08:21:27.652Z,48.74
2017-07-18T08:23:54.296Z,46.83
2017-07-18T08:26:20.247Z,46.50
2017-07-18T08:28:46.315Z,46.75
2017-07-18T08:31:12.235Z,46.03
2017-07-18T08:33:38.095Z,45.67
2017-07-18T08:36:03.949Z,44.88
2017-07-18T08:38:29.961Z,43.92
2017-07-18T08:40:55.908Z,44.13
2017-07-18T08:43:21.824Z,44.56
2017-07-18T08:45:47.803Z,42.49
2017-07-18T08:48:13.654Z,42.88
2017-07-18T08:50:39.594Z,42.49
2017-07-18T08:53:05.450Z,42.86
2017-07-18T08:55:31.315Z,39.18
2017-07-18T08:57:57.138Z,40.90
2017-07-18T09:00:23.119Z,40.57
2017-07-18T09:02:48.982Z,39.86
2017-07-18T09:05:14.914Z,39.55
2017-07-18T09:07:40.836Z,38.25
2017-07-18T09:10:06.769Z,37.95
2017-07-18T09:12:32.595Z,38.04
2017-07-18T09:14:58.509Z,38.85
2017-07-18T09:17:24.413Z,40.68
2017-07-18T09:19:50.340Z,38.76
2017-07-18T09:22:16.296Z,38.26
2017-07-18T09:24:42.242Z,38.56
2017-07-18T09:27:08.148Z,39.90
2017-07-18T09:29:34.203Z,39.81
2017-07-18T09:32:00.037Z,38.91
2017-07-18T09:34:26.004Z,36.01
2017-07-18T09:36:51.866Z,34.89
2017-07-18T09:39:17.828Z,36.94
2017-07-18T09:41:43.683Z,36.30
2017-07-18T09:44:10.500Z,37.10
2017-07-18T09:46:36.374Z,36.81
2017-07-18T09:49:02.325Z,36.03
2017-07-18T09:51:28.230Z,36.56
2017-07-18T09:53:54.157Z,36.86
2017-07-18T09:56:20.061Z,35.29
2017-07-18T09:58:46.032Z,33.75
2017-07-18T10:01:11.898Z,34.35
2017-07-18T10:03:37.831Z,34.14
2017-07-18T10:06:03.704Z,34.60
2017-07-18T10:08:29.562Z,32.27
2017-07-18T10:10:55.628Z,34.21
2017-07-18T10:13:21.560Z,33.04
2017-07-18T10:15:47.407Z,33.03
2017-07-18T10:18:13.241Z,33.44
2017-07-18T10:20:39.299Z,33.01
2017-07-18T10:23:05.202Z,30.87
2017-07-18T10:25:31.143Z,31.11
2017-07-18T10:27:57.172Z,30.04
2017-07-18T10:30:23.072Z,29.66
2017-07-18T10:32:55.914Z,31.36
2017-07-18T10:35:21.757Z,30.48
2017-07-18T10:37:47.700Z,29.05
2017-07-18T10:40:13.580Z,29.63
2017-07-18T10:42:39.612Z,30.36
2017-07-18T10:45:05.461Z,29.90
2017-07-18T10:47:31.497Z,30.20
2017-07-18T10:49:57.454Z,29.61
2017-07-18T10:52:23.306Z,29.80
2017-07-18T10:54:49.293Z,28.92
2017-07-18T10:57:15.145Z,27.56
2017-07-18T10:59:40.997Z,28.25
2017-07-18T11:02:06.945Z,30.75
2017-07-18T11:04:32.813Z,28.94
2017-07-18T11:06:58.732Z,27.65
2017-07-18T11:09:24.624Z,28.42
2017-07-18T11:11:50.469Z,30.69
2017-07-18T11:14:16.394Z,28.88
2017-07-18T11:16:42.384Z,31.00
2017-07-18T11:19:08.238Z,30.61
2017-07-18T11:21:34.104Z,30.81
2017-07-18T11:24:00.041Z,30.25
2017-07-18T11:26:26.012Z,30.77
2017-07-18T11:28:51.929Z,32.07
2017-07-18T11:31:17.842Z,29.82
2017-07-18T11:33:43.777Z,28.95
2017-07-18T11:36:09.631Z,25.93
2017-07-18T11:38:35.530Z,26.27
2017-07-18T11:41:01.536Z,26.90
2017-07-18T11:43:27.454Z,30.38
2017-07-18T11:45:53.337Z,29.34
2017-07-18T11:48:19.392Z,27.88
2017-07-18T11:50:45.361Z,29.93
2017-07-18T11:53:11.189Z,27.72
2017-07-18T11:55:37.065Z,27.42
2017-07-18T11:58:03.028Z,27.51
2017-07-18T12:00:28.894Z,28.29
2017-07-18T12:03:01.670Z,30.54
2017-07-18T12:05:27.643Z,31.27
2017-07-18T12:07:53.531Z,29.50
2017-07-18T12:10:19.452Z,29.55
2017-07-18T12:12:45.356Z,30.48
2017-07-18T12:15:11.465Z,28.66
2017-07-18T12:17:37.494Z,26.09
2017-07-18T12:20:03.389Z,28.78
2017-07-18T12:22:29.246Z,29.71
2017-07-18T12:24:55.225Z,26.84
2017-07-18T12:27:21.120Z,26.11
2017-07-18T12:29:47.042Z,26.66
2017-07-18T12:32:12.869Z,26.86
2017-07-18T12:34:38.748Z,26.42
2017-07-18T12:37:04.709Z,24.16
2017-07-18T12:39:30.604Z,24.91
2017-07-18T12:41:56.611Z,25.85
2017-07-18T12:44:22.572Z,25.38
2017-07-18T12:46:48.535Z,26.33
2017-07-18T12:49:14.448Z,25.77
2017-07-18T12:51:40.565Z,28.14
2017-07-18T12:54:06.478Z,29.30
2017-07-18T12:56:32.327Z,29.85
2017-07-18T12:58:58.217Z,27.26
2017-07-18T13:01:24.110Z,26.18
2017-07-18T13:03:49.998Z,28.28
2017-07-18T13:06:15.950Z,27.55
2017-07-18T13:08:41.863Z,28.20
2017-07-18T13:11:07.832Z,26.41
2017-07-18T13:13:33.692Z,28.82
2017-07-18T13:15:59.867Z,28.66
2017-07-18T13:18:25.786Z,28.83
2017-07-18T13:20:51.789Z,29.88
2017-07-18T13:23:17.756Z,26.39
2017-07-18T13:25:43.612Z,25.78
2017-07-18T13:28:09.548Z,25.30
2017-07-18T13:30:35.450Z,25.44
2017-07-18T13:33:01.381Z,28.46
2017-07-18T13:35:27.277Z,27.87
2017-07-18T13:37:53.218Z,28.54
2017-07-18T13:40:19.070Z,27.12
2017-07-18T13:42:44.978Z,26.79
2017-07-18T13:45:10.896Z,27.88
2017-07-18T13:47:36.870Z,27.93
2017-07-18T13:50:02.812Z,28.80
2017-07-18T13:52:28.764Z,27.69
2017-07-18T13:54:54.661Z,28.58
2017-07-18T13:57:21.204Z,29.45
2017-07-18T13:59:47.148Z,30.95
2017-07-18T14:02:13.125Z,29.52
2017-07-18T14:04:38.979Z,27.63
2017-07-18T14:07:04.923Z,27.08
2017-07-18T14:09:30.809Z,26.38
2017-07-18T14:11:56.740Z,26.18
2017-07-18T14:14:22.710Z,28.55
2017-07-18T14:16:48.574Z,26.03
2017-07-18T14:19:14.428Z,26.42
2017-07-18T14:21:40.349Z,25.41
2017-07-18T14:24:06.237Z,26.88
2017-07-18T14:26:32.129Z,28.00
2017-07-18T14:28:58.114Z,26.73
2017-07-18T14:31:24.001Z,26.82
2017-07-18T14:33:49.932Z,27.96
2017-07-18T14:36:15.789Z,26.92
2017-07-18T14:38:41.653Z,28.09
2017-07-18T14:41:07.704Z,28.75
2017-07-18T14:43:33.689Z,28.48
2017-07-18T14:45:59.657Z,27.56
2017-07-18T14:48:25.648Z,27.44
2017-07-18T14:50:51.477Z,27.12
2017-07-18T14:53:17.329Z,26.25
2017-07-18T14:55:43.260Z,26.88
2017-07-18T14:58:09.259Z,26.82
2017-07-18T15:00:35.303Z,27.46
2017-07-18T15:03:01.267Z,25.82
2017-07-18T15:05:27.182Z,26.44
2017-07-18T15:07:53.197Z,27.98
2017-07-18T15:10:19.040Z,26.59
2017-07-18T15:12:44.891Z,27.42
2017-07-18T15:15:10.804Z,26.04
2017-07-18T15:17:36.735Z,26.27
2017-07-18T15:20:02.610Z,26.59
2017-07-18T15:22:28.747Z,26.99
2017-07-18T15:24:54.592Z,27.50
2017-07-18T15:27:35.649Z,27.28
2017-07-18T15:30:01.567Z,27.54
2017-07-18T15:32:27.497Z,27.39
2017-07-18T15:34:53.465Z,27.67
2017-07-18T15:37:19.532Z,28.65
2017-07-18T15:39:45.452Z,27.06
2017-07-18T15:42:11.316Z,27.22
2017-07-18T15:44:37.184Z,28.18
2017-07-18T15:47:03.119Z,28.07
2017-07-18T15:49:28.960Z,29.10
2017-07-18T15:51:54.838Z,29.26
2017-07-18T15:54:20.823Z,28.14
2017-07-18T15:56:46.696Z,27.64
2017-07-18T15:59:12.676Z,30.32
2017-07-18T16:01:38.632Z,28.92
2017-07-18T16:04:04.496Z,27.30
2017-07-18T16:06:30.388Z,27.83
2017-07-18T16:08:56.358Z,27.88
2017-07-18T16:11:22.392Z,27.96
2017-07-18T16:13:48.475Z,29.28
2017-07-18T16:16:14.368Z,28.22
2017-07-18T16:18:40.209Z,28.22
2017-07-18T16:21:06.308Z,28.88
2017-07-18T16:23:32.157Z,30.20
2017-07-18T16:25:58.035Z,28.82
2017-07-18T16:28:24.096Z,29.28
2017-07-18T16:30:49.938Z,29.61
2017-07-18T16:33:15.819Z,29.87
2017-07-18T16:35:41.735Z,29.46
2017-07-18T16:38:07.692Z,29.21
2017-07-18T16:40:33.529Z,31.11
2017-07-18T16:42:59.400Z,30.87
2017-07-18T16:45:25.338Z,31.30
2017-07-18T16:47:51.275Z,30.69
2017-07-18T16:50:17.180Z,30.66
2017-07-18T16:52:43.033Z,29.91
2017-07-18T16:55:09.066Z,29.77
2017-07-18T16:57:35.110Z,30.97
2017-07-18T17:00:01.167Z,31.17
2017-07-18T17:02:27.133Z,30.82
2017-07-18T17:04:52.996Z,31.70
2017-07-18T17:07:18.863Z,31.53
2017-07-18T17:09:44.856Z,31.81
2017-07-18T17:12:10.780Z,30.92
2017-07-18T17:14:36.627Z,30.88
2017-07-18T17:17:09.411Z,31.31
2017-07-18T17:19:35.275Z,31.62
2017-07-18T17:22:01.351Z,32.03
2017-07-18T17:24:27.288Z,33.09
2017-07-18T17:26:53.304Z,32.24
2017-07-18T17:29:19.383Z,32.43
2017-07-18T17:31:45.255Z,33.25
2017-07-18T17:34:11.117Z,32.18
2017-07-18T17:36:37.046Z,33.20
2017-07-18T17:39:02.905Z,33.00
2017-07-18T17:41:28.908Z,33.11
2017-07-18T17:43:54.865Z,33.02
2017-07-18T17:46:20.730Z,32.96
2017-07-18T17:48:46.613Z,32.88
2017-07-18T17:51:12.571Z,34.40
2017-07-18T17:53:38.528Z,34.56
2017-07-18T17:56:04.376Z,35.09
2017-07-18T17:58:30.372Z,34.52
2017-07-18T18:00:56.257Z,35.24
2017-07-18T18:03:22.106Z,35.10
2017-07-18T18:05:48.140Z,34.89
2017-07-18T18:08:14.152Z,34.55
2017-07-18T18:10:40.105Z,35.40
2017-07-18T18:13:06.202Z,36.60
2017-07-18T18:15:32.147Z,36.34
2017-07-18T18:17:58.186Z,35.35
2017-07-18T18:20:24.167Z,34.79
2017-07-18T18:22:50.059Z,35.41
2017-07-18T18:25:15.905Z,36.61
2017-07-18T18:27:41.932Z,36.96
2017-07-18T18:30:07.812Z,36.23
2017-07-18T18:32:33.702Z,35.94
2017-07-18T18:34:59.576Z,36.05
2017-07-18T18:37:25.477Z,36.27
2017-07-18T18:39:51.398Z,36.94
2017-07-18T18:42:17.367Z,36.74
2017-07-18T18:44:43.222Z,37.87
2017-07-18T18:47:09.160Z,37.95
2017-07-18T18:49:35.063Z,37.35
2017-07-18T18:52:01.054Z,36.90
2017-07-18T18:54:26.933Z,36.64
2017-07-18T18:56:52.866Z,37.17
2017-07-18T18:59:18.736Z,37.10
2017-07-18T19:01:44.808Z,37.24
2017-07-18T19:04:10.746Z,37.64
2017-07-18T19:06:36.572Z,38.01
2017-07-18T19:09:02.649Z,37.63
2017-07-18T19:11:28.676Z,37.46
2017-07-18T19:13:54.618Z,37.96
2017-07-18T19:16:20.500Z,37.87
2017-07-18T19:18:46.481Z,38.56
2017-07-18T19:21:12.525Z,38.86
2017-07-18T19:23:38.418Z,39.02
2017-07-18T19:26:04.342Z,38.90
2017-07-18T19:28:30.209Z,38.82
2017-07-18T19:30:56.256Z,39.44
2017-07-18T19:33:22.209Z,39.53
2017-07-18T19:35:48.300Z,39.87
2017-07-18T19:38:14.232Z,39.64
2017-07-18T19:40:40.091Z,39.80
2017-07-18T19:43:06.047Z,40.29
2017-07-18T19:45:32.021Z,40.26
2017-07-18T19:47:57.888Z,40.59
2017-07-18T19:50:23.882Z,40.87
2017-07-18T19:52:49.821Z,40.70
2017-07-18T19:55:15.796Z,40.70
2017-07-18T19:57:41.779Z,41.07
2017-07-18T20:00:07.679Z,40.91
2017-07-18T20:02:33.656Z,40.97
2017-07-18T20:04:59.581Z,40.83
2017-07-18T20:07:25.460Z,41.21
2017-07-18T20:09:51.381Z,41.46
2017-07-18T20:12:17.344Z,41.62
2017-07-18T20:14:43.260Z,42.48
2017-07-18T20:17:09.290Z,42.29
2017-07-18T20:19:35.205Z,42.15
2017-07-18T20:22:01.107Z,42.11
2017-07-18T20:24:27.072Z,42.84
2017-07-18T20:26:52.953Z,42.83
2017-07-18T20:29:18.860Z,42.73
2017-07-18T20:31:44.854Z,42.30
2017-07-18T20:34:11.530Z,42.63
2017-07-18T20:36:37.417Z,45.60
2017-07-18T20:39:03.441Z,48.51
2017-07-18T20:41:29.496Z,46.47
2017-07-18T20:43:55.428Z,45.04
2017-07-18T20:46:21.420Z,44.04
2017-07-18T20:48:47.356Z,45.31
2017-07-18T20:51:13.367Z,46.92
2017-07-18T20:53:39.265Z,45.68
2017-07-18T20:56:05.136Z,45.44
2017-07-18T20:58:31.060Z,45.58
2017-07-18T21:00:57.774Z,45.17
2017-07-18T21:03:23.793Z,45.32
2017-07-18T21:05:49.670Z,45.27
2017-07-18T21:08:15.766Z,44.49
2017-07-18T21:10:41.701Z,46.45
2017-07-18T21:13:07.532Z,44.97
2017-07-18T21:15:34.365Z,45.47
2017-07-18T21:18:00.236Z,46.97
2017-07-18T21:20:26.253Z,47.44
2017-07-18T21:22:52.228Z,47.77
2017-07-18T21:25:18.085Z,47.89
2017-07-18T21:27:43.927Z,50.06
2017-07-18T21:30:09.888Z,50.94
2017-07-18T21:32:35.785Z,50.54
2017-07-18T21:35:01.697Z,51.71
2017-07-18T21:37:27.545Z,50.63
2017-07-18T21:39:53.416Z,50.08
2017-07-18T21:42:19.365Z,49.53
2017-07-18T21:44:45.261Z,49.10
2017-07-18T21:47:11.196Z,49.71
2017-07-18T21:49:37.148Z,50.68
2017-07-18T21:52:03.039Z,50.97
2017-07-18T21:54:28.881Z,50.37
2017-07-18T21:56:54.777Z,50.93
2017-07-18T21:59:21.513Z,50.99
2017-07-18T22:01:47.373Z,53.41
2017-07-18T22:04:13.300Z,55.10
2017-07-18T22:06:39.228Z,55.20
2017-07-18T22:09:05.065Z,54.20
2017-07-18T22:11:30.890Z,54.59
2017-07-18T22:13:56.768Z,54.26
2017-07-18T22:16:22.765Z,54.33
2017-07-18T22:18:48.689Z,54.55
2017-07-18T22:21:14.583Z,54.46
2017-07-18T22:23:40.521Z,54.17
2017-07-18T22:26:06.362Z,54.67
2017-07-18T22:28:32.269Z,54.26
2017-07-18T22:30:58.212Z,55.00
2017-07-18T22:33:24.054Z,55.77
2017-07-18T22:35:49.887Z,55.89
2017-07-18T22:38:15.982Z,55.37
2017-07-18T22:40:41.934Z,55.38
2017-07-18T22:43:07.774Z,55.27
2017-07-18T22:45:33.741Z,54.92
2017-07-18T22:47:59.620Z,53.89
2017-07-18T22:50:25.545Z,54.64
2017-07-18T22:52:51.448Z,54.87
2017-07-18T22:55:17.312Z,54.88
2017-07-18T22:57:43.242Z,54.38
2017-07-18T23:00:09.099Z,55.02
2017-07-18T23:02:34.981Z,54.66
2017-07-18T23:05:00.877Z,54.70
2017-07-18T23:07:26.784Z,55.18
2017-07-18T23:09:52.767Z,55.04
2017-07-18T23:12:18.816Z,55.61
2017-07-18T23:14:44.762Z,56.33
2017-07-18T23:17:10.633Z,56.55
2017-07-18T23:19:36.682Z,57.44
2017-07-18T23:22:02.616Z,56.68
2017-07-18T23:24:28.496Z,57.54
2017-07-18T23:26:54.347Z,59.13
2017-07-18T23:29:20.272Z,59.71
2017-07-18T23:31:46.957Z,59.70
2017-07-18T23:34:12.810Z,59.94
2017-07-18T23:36:38.700Z,59.80
2017-07-18T23:39:04.583Z,59.39
2017-07-18T23:41:30.472Z,58.85
2017-07-18T23:43:56.517Z,58.56
2017-07-18T23:46:22.521Z,58.61
2017-07-18T23:48:48.513Z,58.40
2017-07-18T23:51:14.339Z,58.92
2017-07-18T23:53:40.221Z,59.64
2017-07-18T23:56:06.140Z,58.22
2017-07-18T23:58:31.992Z,58.71
